Time;durP1;ratioP1;P1;durP2;ratioP2;P2;SDS_P1;SDS_P2;PMS_P1;PMS_P2;Temp;Humidity;BMP_temperature;BMP_pressure;BME280_temperature;BME280_humidity;BME280_pressure;Samples;Min_cycle;Max_cycle;Signal;HPM_P1;HPM_P2
2022/12/06 00:00:53;;;;;;;74.22;17.05;;;;;;;4.44;100.00;101697.41;4982736;28;20046;-78
2022/12/06 00:03:19;;;;;;;68.93;15.85;;;;;;;4.44;100.00;101700.13;4988498;28;21083;-78
2022/12/06 00:05:45;;;;;;;63.15;16.77;;;;;;;4.47;100.00;101699.13;4998396;28;20035;-78
2022/12/06 00:08:10;;;;;;;66.75;17.40;;;;;;;4.41;100.00;101695.72;5000274;28;20039;-78
2022/12/06 00:10:36;;;;;;;82.07;17.77;;;;;;;4.45;100.00;101698.31;4997667;28;20042;-78
2022/12/06 00:13:03;;;;;;;66.47;17.40;;;;;;;4.42;100.00;101702.03;4998356;28;20035;-78
2022/12/06 00:15:29;;;;;;;72.57;16.88;;;;;;;4.42;100.00;101702.91;4999605;28;20046;-78
2022/12/06 00:17:55;;;;;;;74.45;16.33;;;;;;;4.40;100.00;101696.66;5000644;28;20030;-79
2022/12/06 00:20:21;;;;;;;66.38;16.27;;;;;;;4.42;100.00;101702.03;4999734;28;20050;-78
2022/12/06 00:22:46;;;;;;;67.95;17.25;;;;;;;4.44;100.00;101701.97;4993702;28;20037;-79
2022/12/06 00:25:12;;;;;;;77.18;16.90;;;;;;;4.43;100.00;101698.38;4964687;28;20034;-78
2022/12/06 00:27:37;;;;;;;65.15;17.08;;;;;;;4.46;100.00;101698.28;4998861;28;20038;-78
2022/12/06 00:30:03;;;;;;;75.13;17.00;;;;;;;4.45;100.00;101698.31;4980263;28;20088;-78
2022/12/06 00:32:29;;;;;;;82.38;16.77;;;;;;;4.40;100.00;101693.94;4996875;28;20136;-78
2022/12/06 00:34:54;;;;;;;57.83;16.38;;;;;;;4.40;100.00;101693.94;4976305;28;20026;-78
2022/12/06 00:37:20;;;;;;;66.28;15.38;;;;;;;4.40;100.00;101696.66;4975635;28;20034;-78
2022/12/06 00:39:45;;;;;;;62.78;16.02;;;;;;;4.39;100.00;101696.72;4974906;28;20038;-78
2022/12/06 00:42:11;;;;;;;58.00;15.18;;;;;;;4.38;100.00;101692.28;4979320;28;20038;-78
2022/12/06 00:44:37;;;;;;;60.13;15.90;;;;;;;4.39;100.00;101692.22;4980480;28;20038;-78
2022/12/06 00:47:02;;;;;;;75.95;16.13;;;;;;;4.38;100.00;101681.44;4975474;28;20042;-78
2022/12/06 00:49:28;;;;;;;58.17;15.38;;;;;;;4.38;100.00;101690.44;4990366;28;20114;-78
2022/12/06 00:51:53;;;;;;;70.68;14.90;;;;;;;4.40;100.00;101684.94;4985633;28;20403;-78
2022/12/06 00:54:20;;;;;;;62.95;15.38;;;;;;;4.38;100.00;101689.56;4986758;28;20043;-78
2022/12/06 00:56:46;;;;;;;67.53;15.38;;;;;;;4.39;100.00;101694.91;4987622;28;20031;-78
2022/12/06 00:59:12;;;;;;;66.43;14.63;;;;;;;4.36;100.00;101681.47;4979169;28;20038;-78
2022/12/06 01:01:38;;;;;;;57.88;14.80;;;;;;;4.39;100.00;101688.59;4963571;28;20039;-79
2022/12/06 01:04:05;;;;;;;60.60;14.30;;;;;;;4.41;100.00;101694.81;4976907;28;20038;-78
2022/12/06 01:06:34;;;;;;;52.88;13.65;;;;;;;4.40;100.00;101695.78;4998491;28;20498;-78
2022/12/06 01:09:04;;;;;;;60.50;13.07;;;;;;;4.39;100.00;101691.31;4998667;28;20030;-78
2022/12/06 01:11:30;;;;;;;55.25;13.75;;;;;;;4.40;100.00;101690.38;4992664;28;20033;-77
2022/12/06 01:13:56;;;;;;;59.75;14.05;;;;;;;4.39;100.00;101694.00;4972199;28;20058;-77
2022/12/06 01:16:28;;;;;;;60.95;13.38;;;;;;;4.32;100.00;101692.50;4993820;28;20060;-77
2022/12/06 01:19:00;;;;;;;55.05;12.77;;;;;;;4.34;100.00;101686.06;4994318;28;20046;-77
2022/12/06 01:21:27;;;;;;;43.47;12.80;;;;;;;4.38;100.00;101692.28;4997615;28;20049;-78
2022/12/06 01:23:53;;;;;;;44.53;12.65;;;;;;;4.36;100.00;101691.41;4988413;28;20039;-78
2022/12/06 01:26:24;;;;;;;48.00;12.73;;;;;;;4.31;100.00;101701.56;4991269;28;20038;-78
2022/12/06 01:28:50;;;;;;;49.42;11.98;;;;;;;4.37;100.00;101698.63;5001957;28;20046;-78
2022/12/06 01:31:16;;;;;;;62.97;13.00;;;;;;;4.37;100.00;101687.78;4985277;28;20035;-78
2022/12/06 01:33:42;;;;;;;47.92;11.85;;;;;;;4.32;100.00;101685.25;4988899;28;20497;-78
2022/12/06 01:36:08;;;;;;;53.88;12.80;;;;;;;4.35;100.00;101700.50;4990388;28;20050;-78
2022/12/06 01:38:34;;;;;;;45.00;11.35;;;;;;;4.35;100.00;101697.81;4988062;28;20088;-77
2022/12/06 01:41:00;;;;;;;47.08;12.30;;;;;;;4.35;100.00;101695.97;4996894;28;20041;-77
2022/12/06 01:43:40;;;;;;;68.10;12.25;;;;;;;4.40;100.00;101698.50;4979123;28;20030;-77
2022/12/06 01:46:19;;;;;;;46.65;11.30;;;;;;;4.41;100.00;101697.53;4979900;28;20034;-77
2022/12/06 01:48:46;;;;;;;43.55;10.45;;;;;;;4.42;100.00;101702.91;4995284;28;20046;-78
2022/12/06 01:51:14;;;;;;;46.13;10.45;;;;;;;4.36;100.00;101689.63;4995117;28;20037;-77
2022/12/06 01:53:41;;;;;;;36.25;10.40;;;;;;;4.40;100.00;101693.94;4995254;28;20042;-77
2022/12/06 01:56:07;;;;;;;46.28;11.43;;;;;;;4.38;100.00;101694.97;4995543;28;20099;-78
2022/12/06 01:58:37;;;;;;;39.53;10.55;;;;;;;4.38;100.00;101695.84;4997292;28;20525;-78
2022/12/06 02:01:03;;;;;;;36.95;10.15;;;;;;;4.37;100.00;101698.63;4998960;28;20073;-78
2022/12/06 02:03:32;;;;;;;36.25;10.85;;;;;;;4.42;100.00;101691.19;4989863;28;20063;-77
2022/12/06 02:05:58;;;;;;;38.33;10.18;;;;;;;4.38;100.00;101684.13;4976962;28;20026;-78
2022/12/06 02:08:25;;;;;;;28.02;9.18;;;;;;;4.42;100.00;101683.91;4981527;28;20043;-79
2022/12/06 02:10:51;;;;;;;32.28;8.80;;;;;;;4.42;100.00;101691.19;4983830;28;20046;-78
2022/12/06 02:13:16;;;;;;;39.40;8.85;;;;;;;4.46;100.00;101689.22;4993310;28;20780;-78
2022/12/06 02:16:20;;;;;;;45.88;8.90;;;;;;;4.43;100.00;101687.53;4989724;28;20042;-78
2022/12/06 02:18:52;;;;;;;;;;;;;;;4.44;100.00;101692.00;5006654;28;20061;-78
2022/12/06 02:21:59;;;;;;;35.00;8.07;;;;;;;4.45;100.00;101682.06;4999839;28;19913;-78
2022/12/06 02:24:58;;;;;;;38.40;8.00;;;;;;;4.47;100.00;101683.75;4998814;28;20070;-78
2022/12/06 02:28:00;;;;;;;27.80;8.25;;;;;;;4.46;100.00;101689.22;4995904;28;20038;-78
2022/12/06 02:30:46;;;;;;;36.72;9.07;;;;;;;4.46;100.00;101687.41;4978818;28;20373;-77
2022/12/06 02:33:53;;;;;;;37.95;9.23;;;;;;;4.51;100.00;101682.69;4992589;28;20030;-77
2022/12/06 02:36:35;;;;;;;28.05;8.43;;;;;;;4.50;100.00;101688.16;4985146;28;20173;-77
2022/12/06 02:39:35;;;;;;;34.88;8.90;;;;;;;4.46;100.00;101682.00;4995412;28;20046;-77
2022/12/06 02:42:10;;;;;;;35.45;8.70;;;;;;;4.47;100.00;101672.91;4968062;28;20115;-78
2022/12/06 02:44:41;;;;;;;36.28;9.40;;;;;;;4.46;100.00;101675.66;4996343;28;20045;-78
2022/12/06 02:47:12;;;;;;;32.20;8.93;;;;;;;4.42;100.00;101662.22;4998124;28;20089;-78
2022/12/06 02:49:45;;;;;;;29.90;8.65;;;;;;;4.51;100.00;101670.94;4976520;28;20053;-78
2022/12/06 02:52:11;;;;;;;;;;;;;;;4.56;100.00;101674.38;4980471;28;20045;-78
2022/12/06 02:54:38;;;;;;;29.70;8.48;;;;;;;4.53;100.00;101671.78;4999792;28;19981;-78
2022/12/06 02:57:04;;;;;;;32.67;8.73;;;;;;;4.52;100.00;101676.31;4998673;28;20126;-78
2022/12/06 02:59:29;;;;;;;41.33;9.38;;;;;;;4.52;100.00;101670.88;4998828;28;20064;-78
2022/12/06 03:01:59;;;;;;;36.65;9.52;;;;;;;4.47;100.00;101672.03;4998608;28;20034;-78
2022/12/06 03:05:06;;;;;;;33.63;8.68;;;;;;;4.53;100.00;101666.34;4998478;28;20069;-77
2022/12/06 03:07:35;;;;;;;35.10;9.10;;;;;;;4.47;100.00;101664.75;4997662;28;20528;-78
2022/12/06 03:10:22;;;;;;;32.33;9.20;;;;;;;4.53;100.00;101661.81;4998544;28;20034;-78
2022/12/06 03:13:09;;;;;;;30.33;9.25;;;;;;;4.52;100.00;101667.28;4989692;28;20473;-78
2022/12/06 03:15:44;;;;;;;35.72;9.05;;;;;;;4.50;100.00;101670.06;5015831;28;20043;-78
2022/12/06 03:18:19;;;;;;;30.17;8.40;;;;;;;4.55;100.00;101673.47;4996037;28;20022;-78
2022/12/06 03:20:57;;;;;;;40.67;9.82;;;;;;;4.55;100.00;101669.88;4996703;28;20076;-78
2022/12/06 03:23:31;;;;;;;35.95;9.57;;;;;;;4.54;100.00;101671.72;4995046;28;20109;-78
2022/12/06 03:26:01;;;;;;;44.40;10.00;;;;;;;4.53;100.00;101666.34;4991060;28;20037;-78
2022/12/06 03:28:28;;;;;;;41.40;8.93;;;;;;;4.56;100.00;101675.25;4998768;28;20117;-79
2022/12/06 03:31:00;;;;;;;36.83;9.23;;;;;;;4.53;100.00;101671.78;4997346;28;20030;-77
2022/12/06 03:33:28;;;;;;;45.35;9.90;;;;;;;4.54;100.00;101674.44;4999721;28;20038;-78
2022/12/06 03:35:56;;;;;;;30.83;9.45;;;;;;;4.53;100.00;101671.78;4998588;28;20397;-78
2022/12/06 03:38:32;;;;;;;33.38;9.25;;;;;;;4.50;100.00;101669.19;4994798;28;20030;-78
2022/12/06 03:41:02;;;;;;;39.10;10.23;;;;;;;4.57;100.00;101674.28;4999483;28;20038;-78
2022/12/06 03:43:28;;;;;;;45.63;9.95;;;;;;;4.55;100.00;101665.34;4998349;28;20014;-77
2022/12/06 03:46:03;;;;;;;31.58;9.95;;;;;;;4.57;100.00;101667.97;5000929;28;20496;-78
2022/12/06 03:48:37;;;;;;;40.78;10.60;;;;;;;4.56;100.00;101661.69;4994279;28;20023;-78
2022/12/06 03:51:14;;;;;;;46.78;10.35;;;;;;;4.54;100.00;101668.09;4995575;28;20104;-78
2022/12/06 03:53:57;;;;;;;32.90;10.48;;;;;;;4.53;100.00;101656.38;4998897;28;20042;-78
2022/12/06 03:56:23;;;;;;;44.75;11.73;;;;;;;4.56;100.00;101667.13;5000492;28;20030;-78
2022/12/06 03:58:48;;;;;;;31.90;10.75;;;;;;;4.59;100.00;101672.41;5000400;28;20427;-78
2022/12/06 04:01:14;;;;;;;41.78;12.05;;;;;;;4.54;100.00;101674.44;4970379;28;20066;-78
2022/12/06 04:03:39;;;;;;;38.97;10.93;;;;;;;4.56;100.00;101664.41;4990261;28;20081;-78
2022/12/06 04:06:07;;;;;;;42.80;12.90;;;;;;;4.56;100.00;101663.53;4998776;28;20088;-78
2022/12/06 04:08:33;;;;;;;51.38;12.93;;;;;;;4.56;100.00;101660.81;4999143;28;20038;-78
2022/12/06 04:10:58;;;;;;;55.05;13.23;;;;;;;4.56;100.00;101658.09;4998989;28;20168;-78
2022/12/06 04:13:26;;;;;;;49.75;12.50;;;;;;;4.55;100.00;101662.63;4966329;28;20034;-78
2022/12/06 04:15:55;;;;;;;46.67;13.40;;;;;;;4.57;100.00;101663.44;4999215;28;20030;-78
2022/12/06 04:18:28;;;;;;;39.92;12.88;;;;;;;4.60;100.00;101663.31;4994552;28;20030;-78
2022/12/06 04:23:48;;;;;;;44.65;13.10;;;;;;;4.62;100.00;101665.09;4994186;28;20039;-78
2022/12/06 04:26:21;;;;;;;41.28;12.60;;;;;;;4.64;100.00;101669.53;4990272;28;20028;-79
2022/12/06 04:39:45;;;;;;;47.00;13.27;;;;;;;4.67;100.00;101668.50;4995434;28;20034;-78
2022/12/06 04:44:55;;;;;;;47.53;14.20;;;;;;;4.65;100.00;101670.38;4998488;28;20030;-77
2022/12/06 04:47:20;;;;;;;48.45;14.02;;;;;;;4.66;100.00;101669.47;4985632;28;20046;-78
2022/12/06 04:49:46;;;;;;;42.97;13.75;;;;;;;4.65;100.00;101678.53;4995755;28;20048;-79
2022/12/06 04:52:12;;;;;;;52.92;13.63;;;;;;;4.60;100.00;101674.16;4974231;28;20166;-79
2022/12/06 04:54:38;;;;;;;48.55;13.10;;;;;;;4.62;100.00;101671.38;4988441;28;20478;-78
2022/12/06 04:57:09;;;;;;;55.72;15.13;;;;;;;4.63;100.00;101666.88;4962671;28;20035;-79
2022/12/06 04:59:37;;;;;;;47.65;13.75;;;;;;;4.61;100.00;101666.94;4994884;28;20484;-78
2022/12/06 05:02:03;;;;;;;44.58;14.23;;;;;;;4.63;100.00;101670.44;5004692;28;20101;-78
2022/12/06 05:04:28;;;;;;;45.25;13.55;;;;;;;4.66;100.00;101670.31;4997650;28;20100;-79
2022/12/06 05:06:53;;;;;;;49.08;14.40;;;;;;;4.69;100.00;101669.31;4984613;28;20038;-78
2022/12/06 05:09:20;;;;;;;50.97;13.70;;;;;;;4.70;100.00;101674.66;4970319;28;20030;-79
2022/12/06 05:11:46;;;;;;;47.05;13.80;;;;;;;4.69;100.00;101670.22;4984024;28;20054;-79
2022/12/06 05:14:11;;;;;;;49.13;14.00;;;;;;;4.71;100.00;101673.72;4979178;28;20064;-78
2022/12/06 05:16:37;;;;;;;48.58;14.02;;;;;;;4.71;100.00;101673.72;4984142;28;20049;-78
2022/12/06 05:19:02;;;;;;;53.65;13.20;;;;;;;4.69;100.00;101670.22;5003234;28;20113;-78
2022/12/06 05:21:28;;;;;;;49.13;13.68;;;;;;;4.69;100.00;101670.22;4986636;28;20124;-78
2022/12/06 05:23:54;;;;;;;40.45;12.55;;;;;;;4.71;100.00;101668.31;5012246;28;20190;-79
2022/12/06 05:26:22;;;;;;;57.30;14.45;;;;;;;4.72;100.00;101666.47;4995075;28;20504;-78
2022/12/06 05:28:48;;;;;;;48.35;13.73;;;;;;;4.70;100.00;101669.25;4990039;28;20494;-78
2022/12/06 05:31:14;;;;;;;42.55;13.93;;;;;;;4.74;100.00;101672.72;4996090;28;20061;-79
2022/12/06 05:33:40;;;;;;;49.42;13.68;;;;;;;4.71;100.00;101675.56;4998633;28;20055;-79
2022/12/06 05:36:14;;;;;;;61.05;13.32;;;;;;;4.72;100.00;101672.78;4994997;28;20031;-79
2022/12/06 05:38:40;;;;;;;38.38;13.02;;;;;;;4.71;100.00;101668.31;4993140;28;20038;-79
2022/12/06 05:41:06;;;;;;;52.60;13.23;;;;;;;4.75;100.00;101664.50;5000045;28;20062;-79
2022/12/06 05:43:32;;;;;;;60.88;14.50;;;;;;;4.72;100.00;101667.38;4997705;28;20485;-77
2022/12/06 05:45:58;;;;;;;51.92;14.45;;;;;;;4.69;100.00;101661.16;4998523;28;20094;-77
2022/12/06 05:48:24;;;;;;;51.42;13.35;;;;;;;4.73;100.00;101671.81;4992636;28;20109;-77
2022/12/06 05:50:50;;;;;;;52.65;14.25;;;;;;;4.77;100.00;101659.00;4994912;28;20041;-78
2022/12/06 05:53:16;;;;;;;58.63;14.55;;;;;;;4.75;100.00;101669.06;4992438;28;20065;-77
2022/12/06 05:55:43;;;;;;;48.90;12.57;;;;;;;4.68;100.00;101662.13;4997256;28;20041;-77
2022/12/06 05:58:10;;;;;;;56.35;14.43;;;;;;;4.70;100.00;101668.38;4993042;28;20034;-77
2022/12/06 06:00:36;;;;;;;54.95;13.55;;;;;;;4.71;100.00;101670.16;4994543;28;20046;-77
2022/12/06 06:03:02;;;;;;;54.53;14.23;;;;;;;4.71;100.00;101671.03;4987832;28;20047;-77
2022/12/06 06:05:27;;;;;;;56.40;14.23;;;;;;;4.75;100.00;101671.75;4989765;28;20410;-77
2022/12/06 06:07:53;;;;;;;64.47;13.73;;;;;;;4.70;100.00;101669.25;4996244;28;20104;-77
2022/12/06 06:10:20;;;;;;;55.75;14.07;;;;;;;4.69;100.00;101672.91;5000813;28;20046;-78
2022/12/06 06:12:45;;;;;;;50.30;14.65;;;;;;;4.69;100.00;101672.00;4993671;28;20109;-79
2022/12/06 06:15:12;;;;;;;61.97;14.68;;;;;;;4.72;100.00;101671.88;4984272;28;20050;-79
2022/12/06 06:17:39;;;;;;;55.22;15.07;;;;;;;4.64;100.00;101674.03;4978311;28;20378;-77
2022/12/06 06:20:06;;;;;;;56.17;13.65;;;;;;;4.69;100.00;101677.44;4961822;28;20042;-78
2022/12/06 06:22:33;;;;;;;63.95;15.15;;;;;;;4.70;100.00;101663.81;4970205;28;20053;-78
2022/12/06 06:24:59;;;;;;;45.10;13.85;;;;;;;4.71;100.00;101671.03;4997145;28;20026;-78
2022/12/06 06:27:25;;;;;;;66.22;14.30;;;;;;;4.75;100.00;101685.34;4995186;28;20046;-78
2022/12/06 06:29:51;;;;;;;62.25;15.52;;;;;;;4.74;100.00;101673.59;4972940;28;20039;-78
2022/12/06 06:32:16;;;;;;;56.15;13.07;;;;;;;4.76;100.00;101670.84;4997978;28;20101;-78
2022/12/06 06:34:41;;;;;;;50.03;13.48;;;;;;;4.70;100.00;101674.66;4974311;28;20081;-78
2022/12/06 06:37:07;;;;;;;57.13;14.98;;;;;;;4.67;100.00;101669.38;4979207;28;20063;-78
2022/12/06 06:39:32;;;;;;;51.00;14.93;;;;;;;4.68;100.00;101663.00;4976851;28;20031;-79
2022/12/06 06:41:58;;;;;;;57.30;13.93;;;;;;;4.71;100.00;101664.72;4980929;28;20038;-78
2022/12/06 06:44:23;;;;;;;60.00;15.88;;;;;;;4.76;100.00;101673.53;4978184;28;20118;-79
2022/12/06 06:46:49;;;;;;;74.30;15.60;;;;;;;4.73;100.00;101666.41;4999674;28;20031;-79
2022/12/06 06:49:16;;;;;;;45.10;14.18;;;;;;;4.70;100.00;101665.66;4963341;28;20075;-79
2022/12/06 06:51:42;;;;;;;61.33;15.57;;;;;;;4.68;100.00;101664.84;5000002;28;20046;-79
2022/12/06 06:54:07;;;;;;;64.75;15.43;;;;;;;4.69;100.00;101661.16;4996441;28;20405;-78
2022/12/06 06:56:33;;;;;;;48.33;14.23;;;;;;;4.65;100.00;101667.69;5001565;28;20418;-78
2022/12/06 06:58:58;;;;;;;50.65;13.57;;;;;;;4.62;100.00;101660.53;4984201;28;20551;-78
2022/12/06 07:01:24;;;;;;;61.38;15.48;;;;;;;4.64;100.00;101665.91;4979265;28;20117;-77
2022/12/06 07:03:50;;;;;;;64.00;14.95;;;;;;;4.65;100.00;101667.69;4992722;28;20034;-78
2022/12/06 07:06:20;;;;;;;54.50;14.45;;;;;;;4.67;100.00;101668.50;4979822;28;20042;-77
2022/12/06 07:08:47;;;;;;;54.55;14.85;;;;;;;4.65;100.00;101664.97;4992527;28;20134;-77
2022/12/06 07:11:13;;;;;;;42.75;14.38;;;;;;;4.59;100.00;101660.66;4977972;28;20134;-77
2022/12/06 07:13:41;;;;;;;47.17;13.38;;;;;;;4.61;100.00;101664.22;4988188;28;20046;-77
2022/12/06 07:16:12;;;;;;;53.15;13.65;;;;;;;4.63;100.00;101664.16;4977601;28;20379;-77
2022/12/06 07:18:37;;;;;;;57.15;13.07;;;;;;;4.57;100.00;101657.13;4986172;28;20512;-77
2022/12/06 07:21:05;;;;;;;52.30;12.80;;;;;;;4.57;100.00;101660.72;4992392;28;20126;-77
2022/12/06 07:23:32;;;;;;;52.83;14.57;;;;;;;4.63;100.00;101656.88;4984636;28;20149;-77
2022/12/06 07:26:22;;;;;;;39.40;12.63;;;;;;;4.67;100.00;101668.50;4980448;28;20493;-77
2022/12/06 07:28:49;;;;;;;58.35;14.25;;;;;;;4.66;100.00;101664.03;5005300;28;20060;-77
2022/12/06 07:31:23;;;;;;;53.75;13.18;;;;;;;4.63;100.00;101661.44;4942255;28;20039;-77
2022/12/06 07:33:54;;;;;;;48.20;12.43;;;;;;;4.61;100.00;101666.94;4989038;28;20113;-78
2022/12/06 07:36:22;;;;;;;54.72;13.07;;;;;;;4.63;100.00;101664.16;4991745;28;20056;-77
2022/12/06 07:38:52;;;;;;;36.58;11.38;;;;;;;4.63;100.00;101665.03;4991731;28;20509;-77
2022/12/06 07:46:48;;;;;;;42.28;12.75;;;;;;;4.60;100.00;101678.72;5003159;28;20030;-81
2022/12/06 07:49:17;;;;;;;59.65;12.60;;;;;;;4.57;100.00;101668.84;4983175;28;20038;-77
2022/12/06 07:51:44;;;;;;;55.20;12.75;;;;;;;4.57;100.00;101668.84;4991492;28;20042;-78
2022/12/06 07:54:10;;;;;;;46.90;12.45;;;;;;;4.55;100.00;101675.31;4994551;28;20040;-79
2022/12/06 07:56:36;;;;;;;46.13;12.20;;;;;;;4.57;100.00;101676.13;4992979;28;20695;-78
2022/12/06 07:59:02;;;;;;;38.53;10.18;;;;;;;4.54;100.00;101681.66;4975316;28;20057;-78
2022/12/06 08:01:27;;;;;;;63.28;12.38;;;;;;;4.59;100.00;101683.25;4989806;28;20038;-78
2022/12/06 08:03:55;;;;;;;26.83;10.05;;;;;;;4.58;100.00;101686.91;4990822;28;20029;-78
2022/12/06 08:06:24;;;;;;;44.38;11.13;;;;;;;4.59;100.00;101685.97;4964812;28;20477;-77
2022/12/06 08:08:49;;;;;;;35.50;10.95;;;;;;;4.63;100.00;101689.44;4994669;28;20100;-78
2022/12/06 08:11:14;;;;;;;28.08;9.13;;;;;;;4.57;100.00;101687.84;4994183;28;20050;-78
2022/12/06 08:13:40;;;;;;;37.78;10.27;;;;;;;4.68;100.00;101697.41;4948472;28;20020;-78
2022/12/06 08:16:08;;;;;;;43.65;10.57;;;;;;;4.69;100.00;101696.44;4977416;28;20177;-77
2022/12/06 08:18:33;;;;;;;30.88;9.73;;;;;;;4.73;100.00;101690.81;4985066;28;20046;-78
2022/12/06 08:20:59;;;;;;;37.03;10.23;;;;;;;4.64;100.00;101696.63;4990781;28;20030;-77
2022/12/06 08:23:25;;;;;;;29.08;9.38;;;;;;;4.65;100.00;101692.97;5001229;28;20495;-78
2022/12/06 08:26:08;;;;;;;45.47;10.27;;;;;;;4.63;100.00;101705.72;4981160;28;20039;-77
2022/12/06 08:28:36;;;;;;;38.10;10.38;;;;;;;4.64;100.00;101706.59;4993466;28;20496;-78
2022/12/06 08:31:09;;;;;;;37.45;10.60;;;;;;;4.69;100.00;101701.84;4995061;28;20097;-77
2022/12/06 08:33:35;;;;;;;;;;;;;;;4.66;100.00;101702.88;4999997;28;20042;-77
2022/12/06 08:36:00;;;;;;;40.03;10.52;;;;;;;4.69;100.00;101704.56;4998400;28;19925;-77
2022/12/06 08:38:27;;;;;;;43.30;10.52;;;;;;;4.67;100.00;101701.91;5005762;28;20033;-78
2022/12/06 08:40:52;;;;;;;40.08;11.85;;;;;;;4.71;100.00;101702.69;4989821;28;20109;-78
2022/12/06 08:43:18;;;;;;;33.63;10.32;;;;;;;4.77;100.00;101699.72;4972683;28;20054;-77
2022/12/06 08:45:43;;;;;;;46.08;10.73;;;;;;;4.72;100.00;101704.44;5002805;28;20058;-79
2022/12/06 08:48:09;;;;;;;44.08;12.07;;;;;;;4.72;100.00;101707.16;4969578;28;20030;-79
2022/12/06 08:50:34;;;;;;;38.13;11.32;;;;;;;4.73;100.00;101714.34;4974465;28;20069;-78
2022/12/06 08:52:59;;;;;;;44.25;11.45;;;;;;;4.73;100.00;101708.94;4981823;28;20034;-78
2022/12/06 08:55:25;;;;;;;34.42;12.48;;;;;;;4.80;100.00;101713.16;4968375;28;20165;-78
2022/12/06 08:57:50;;;;;;;47.50;14.02;;;;;;;4.80;100.00;101707.72;4985556;28;20109;-78
2022/12/06 09:00:16;;;;;;;44.55;12.48;;;;;;;4.76;100.00;101714.25;4952144;28;20030;-78
2022/12/06 09:02:41;;;;;;;45.03;10.88;;;;;;;4.78;100.00;101718.63;4984434;28;20041;-78
2022/12/06 09:05:09;;;;;;;42.92;12.90;;;;;;;4.77;100.00;101713.28;5002501;28;20039;-78
2022/12/06 09:07:34;;;;;;;46.95;11.57;;;;;;;4.83;100.00;101718.44;4986024;28;20037;-78
2022/12/06 09:10:01;;;;;;;30.92;9.65;;;;;;;4.87;100.00;101711.06;5002821;28;20409;-77
2022/12/06 09:12:26;;;;;;;40.70;10.30;;;;;;;4.87;100.00;101711.06;5000782;28;20065;-78
2022/12/06 09:14:51;;;;;;;32.67;10.13;;;;;;;4.84;100.00;101709.38;4999386;28;20058;-78
2022/12/06 09:17:20;;;;;;;31.33;10.10;;;;;;;4.93;100.00;101714.41;4966809;28;20381;-78
2022/12/06 09:19:46;;;;;;;26.45;8.82;;;;;;;4.92;100.00;101717.19;5000506;28;20038;-77
2022/12/06 09:22:12;;;;;;;38.95;9.38;;;;;;;4.91;100.00;101713.59;4979546;28;20069;-78
2022/12/06 09:24:37;;;;;;;31.25;10.20;;;;;;;4.85;100.00;101708.41;4991061;28;20042;-78
2022/12/06 09:27:03;;;;;;;32.05;8.88;;;;;;;4.93;100.00;101710.81;4994675;28;20090;-78
2022/12/06 09:29:28;;;;;;;37.42;10.40;;;;;;;5.01;100.00;101699.66;4980963;28;20082;-77
2022/12/06 09:31:54;;;;;;;25.10;8.82;;;;;;;5.04;100.00;101704.94;4985416;28;20052;-77
2022/12/06 09:34:19;;;;;;;30.23;9.93;;;;;;;5.09;100.00;101705.63;4980829;28;20038;-78
2022/12/06 09:36:57;;;;;;;32.05;9.52;;;;;;;5.13;100.00;101702.72;4997690;28;20044;-77
2022/12/06 09:39:43;;;;;;;26.52;9.98;;;;;;;5.12;100.00;101714.53;4981480;28;20093;-77
2022/12/06 09:42:31;;;;;;;31.80;11.13;;;;;;;5.13;100.00;101709.97;4995417;28;20042;-77
2022/12/06 09:45:30;;;;;;;37.78;11.02;;;;;;;5.15;100.00;101716.25;4978324;28;20050;-77
2022/12/06 09:48:23;;;;;;;41.10;11.43;;;;;;;5.19;100.00;101719.69;4980431;28;20027;-77
2022/12/06 09:51:07;;;;;;;32.58;9.60;;;;;;;5.24;100.00;101726.69;4980155;28;20064;-78
2022/12/06 09:53:51;;;;;;;32.00;10.15;;;;;;;5.31;100.00;101713.72;4995193;28;20069;-77
2022/12/06 09:56:35;;;;;;;29.58;9.27;;;;;;;5.27;100.00;101723.84;4998573;28;20045;-78
2022/12/06 09:59:13;;;;;;;18.52;7.90;;;;;;;5.16;100.00;101717.97;4995509;28;20484;-77
2022/12/06 10:01:45;;;;;;;26.20;7.97;;;;;;;5.09;100.00;101714.66;4974919;28;20054;-77
2022/12/06 10:04:38;;;;;;;23.80;8.07;;;;;;;5.00;100.00;101709.63;4986279;28;20114;-77
2022/12/06 10:07:22;;;;;;;18.85;7.43;;;;;;;4.85;100.00;101715.69;4996480;28;20042;-78
2022/12/06 10:10:06;;;;;;;27.17;7.70;;;;;;;4.85;100.00;101715.69;4997179;28;20034;-77
2022/12/06 10:12:44;;;;;;;25.70;8.85;;;;;;;5.17;100.00;101714.34;4990723;28;20057;-77
2022/12/06 10:15:36;;;;;;;29.95;8.15;;;;;;;5.40;100.00;101712.47;4977516;28;20457;-77
2022/12/06 10:18:15;;;;;;;29.07;8.33;;;;;;;5.47;100.00;101713.94;4978182;28;20050;-77
2022/12/06 10:20:48;;;;;;;20.75;7.57;;;;;;;5.66;100.00;101712.19;4995194;28;20040;-77
2022/12/06 10:23:31;;;;;;;22.52;8.02;;;;;;;5.69;100.00;101703.91;4996754;28;20022;-77
2022/12/06 10:26:19;;;;;;;25.95;9.13;;;;;;;5.82;100.00;101703.31;4993291;28;20031;-77
2022/12/06 10:29:16;;;;;;;23.50;8.23;;;;;;;5.80;100.00;101703.41;4984024;28;20493;-77
2022/12/06 10:32:30;;;;;;;19.85;7.45;;;;;;;5.68;100.00;101701.25;4978742;28;20034;-77
2022/12/06 10:35:03;;;;;;;19.48;7.13;;;;;;;5.94;100.00;101693.75;4978960;28;20050;-77
2022/12/06 10:37:29;;;;;;;20.98;6.85;;;;;;;6.11;100.00;101693.00;4985854;28;20031;-77
2022/12/06 10:40:17;;;;;;;16.23;7.05;;;;;;;6.18;100.00;101684.47;4996864;28;20365;-77
2022/12/06 10:42:57;;;;;;;13.82;6.60;;;;;;;5.74;100.00;101689.22;4996037;28;20443;-77
2022/12/06 10:48:35;;;;;;;15.27;5.68;;;;;;;6.06;100.00;101694.06;4996305;28;20039;-77
2022/12/06 10:51:08;;;;;;;14.20;6.20;;;;;;;5.84;100.00;101696.88;4999137;28;20038;-77
2022/12/06 10:53:42;;;;;;;12.73;5.88;;;;;;;5.88;100.00;101694.91;4980077;28;20027;-78
2022/12/06 10:56:18;;;;;;;17.88;6.07;;;;;;;5.94;100.00;101689.19;4981257;28;20138;-77
2022/12/06 10:59:31;;;;;;;12.77;5.70;;;;;;;6.02;100.00;101692.47;4996329;28;20026;-77
2022/12/06 11:02:06;;;;;;;13.02;4.88;;;;;;;6.04;100.00;101684.25;4979251;28;20042;-77
2022/12/06 11:04:35;;;;;;;12.77;5.82;;;;;;;6.28;100.00;101684.03;4998118;28;20057;-78
2022/12/06 11:07:12;;;;;;;8.45;5.10;;;;;;;6.14;100.00;101687.41;4997897;28;20038;-77
2022/12/06 11:09:41;;;;;;;16.40;5.55;;;;;;;6.20;100.00;101688.00;4995723;28;20106;-78
2022/12/06 11:12:18;;;;;;;11.25;5.40;;;;;;;6.31;100.00;101683.88;4977188;28;20018;-77
2022/12/06 11:14:49;;;;;;;10.43;5.53;;;;;;;6.63;100.00;101685.03;4986621;28;20084;-77
2022/12/06 11:17:28;;;;;;;13.13;6.05;;;;;;;6.67;100.00;101683.03;4980863;28;20034;-77
2022/12/06 11:20:11;;;;;;;11.70;4.97;;;;;;;6.39;100.00;101687.97;4977761;28;20030;-77
2022/12/06 11:22:44;;;;;;;16.15;5.63;;;;;;;6.20;100.00;101684.41;4983014;28;20041;-76
2022/12/06 11:25:33;;;;;;;12.95;4.95;;;;;;;6.00;100.00;101683.50;5002216;28;20050;-77
2022/12/06 11:28:10;;;;;;;16.02;5.10;;;;;;;5.92;100.00;101682.94;4993265;28;20038;-78
2022/12/06 11:30:36;;;;;;;16.08;5.10;;;;;;;6.02;100.00;101681.59;4995129;28;20371;-78
2022/12/06 11:33:03;;;;;;;10.57;4.22;;;;;;;5.88;100.00;101684.03;4994069;28;20041;-77
2022/12/06 11:35:28;;;;;;;9.43;4.75;;;;;;;5.93;100.00;101683.81;4997422;28;20041;-77
2022/12/06 11:38:01;;;;;;;10.55;4.38;;;;;;;6.11;100.00;101683.00;4975882;28;20026;-77
2022/12/06 11:40:33;;;;;;;12.45;4.45;;;;;;;6.10;100.00;101675.81;4994354;28;20135;-77
2022/12/06 11:43:04;;;;;;;12.55;4.63;;;;;;;6.16;100.00;101672.78;4993823;28;20026;-77
2022/12/06 11:45:38;;;;;;;11.38;4.30;;;;;;;6.18;100.00;101679.03;4990683;28;20093;-78
2022/12/06 11:48:15;;;;;;;8.68;3.83;;;;;;;6.23;100.00;101674.25;4998352;28;20069;-78
2022/12/06 11:50:42;;;;;;;8.18;3.65;;;;;;;6.28;100.00;101679.50;4995992;28;20041;-78
2022/12/06 11:53:20;;;;;;;7.55;3.28;;;;;;;6.35;100.00;101674.63;5003565;28;20064;-79